createdAt,value
2019-01-15T00:01:34.504Z,15.93
2019-01-15T00:04:02.653Z,6.17
2019-01-15T00:06:30.802Z,9.43
2019-01-15T00:08:58.987Z,8.27
2019-01-15T00:11:27.263Z,6.17
2019-01-15T00:13:55.436Z,5.63
2019-01-15T00:16:23.577Z,9.23
2019-01-15T00:18:51.711Z,4.70
2019-01-15T00:21:19.860Z,6.47
2019-01-15T00:23:48.037Z,5.17
2019-01-15T00:26:16.190Z,5.17
2019-01-15T00:28:44.382Z,5.57
2019-01-15T00:31:12.826Z,4.63
2019-01-15T00:33:40.964Z,2.67
2019-01-15T00:36:09.121Z,3.67
2019-01-15T00:38:37.282Z,5.80
2019-01-15T00:41:05.446Z,6.07
2019-01-15T00:43:33.604Z,7.57
2019-01-15T00:46:04.062Z,3.40
2019-01-15T00:48:32.383Z,7.80
2019-01-15T00:51:00.812Z,4.53
2019-01-15T00:53:30.440Z,2.77
2019-01-15T00:55:58.586Z,4.43
2019-01-15T00:58:37.589Z,4.60
2019-01-15T01:01:07.280Z,3.77
2019-01-15T01:03:35.378Z,3.13
2019-01-15T01:06:03.451Z,6.60
2019-01-15T01:08:31.683Z,5.07
2019-01-15T01:10:59.823Z,8.17
2019-01-15T01:13:27.961Z,4.03
2019-01-15T01:15:56.147Z,5.00
2019-01-15T01:18:25.114Z,7.73
2019-01-15T01:20:58.519Z,3.37
2019-01-15T01:23:27.625Z,2.57
2019-01-15T01:25:56.200Z,4.70
2019-01-15T01:28:26.440Z,3.43
2019-01-15T01:30:55.105Z,3.93
2019-01-15T01:33:23.269Z,7.07
2019-01-15T01:35:51.606Z,4.27
2019-01-15T01:38:19.784Z,4.27
2019-01-15T01:40:47.916Z,6.63
2019-01-15T01:43:16.055Z,4.97
2019-01-15T01:45:44.243Z,6.97
2019-01-15T01:48:12.412Z,4.60
2019-01-15T01:50:40.551Z,8.63
2019-01-15T01:53:08.747Z,6.50
2019-01-15T01:55:36.888Z,7.75
2019-01-15T01:58:05.063Z,8.67
2019-01-15T02:00:33.219Z,7.83
2019-01-15T02:03:01.379Z,9.60
2019-01-15T02:05:29.521Z,6.80
2019-01-15T02:07:57.706Z,8.77
2019-01-15T02:10:25.839Z,12.60
2019-01-15T02:12:53.987Z,7.60
2019-01-15T02:15:22.164Z,11.43
2019-01-15T02:17:50.334Z,14.70
2019-01-15T02:20:18.944Z,10.37
2019-01-15T02:22:47.120Z,13.03
2019-01-15T02:25:15.256Z,18.47
2019-01-15T02:27:45.052Z,11.57
2019-01-15T02:30:14.868Z,11.23
2019-01-15T02:32:43.019Z,7.13
2019-01-15T02:35:13.110Z,11.30
2019-01-15T02:37:44.518Z,8.67
2019-01-15T02:40:14.514Z,11.47
2019-01-15T02:42:46.771Z,10.53
2019-01-15T02:45:13.771Z,9.63
2019-01-15T02:47:41.928Z,14.73
2019-01-15T02:50:11.757Z,10.37
2019-01-15T02:52:40.373Z,7.47
2019-01-15T02:55:09.629Z,8.00
2019-01-15T02:57:40.254Z,11.20
2019-01-15T03:00:11.178Z,11.13
2019-01-15T03:02:39.256Z,12.77
2019-01-15T03:05:09.088Z,11.13
2019-01-15T03:07:37.259Z,9.07
2019-01-15T03:10:07.048Z,10.47
2019-01-15T03:12:35.227Z,10.47
2019-01-15T03:15:04.779Z,14.23
2019-01-15T03:17:32.953Z,10.00
2019-01-15T03:20:02.795Z,17.53
2019-01-15T03:22:37.483Z,12.10
2019-01-15T03:25:07.588Z,11.43
2019-01-15T03:27:35.747Z,9.73
2019-01-15T03:30:05.567Z,14.40
2019-01-15T03:32:33.688Z,15.43
2019-01-15T03:35:01.836Z,13.10
2019-01-15T03:37:31.939Z,13.70
2019-01-15T03:40:00.299Z,19.47
2019-01-15T03:42:28.470Z,16.63
2019-01-15T03:44:56.634Z,13.77
2019-01-15T03:47:24.765Z,20.20
2019-01-15T03:49:52.929Z,15.20
2019-01-15T03:52:21.101Z,18.80
2019-01-15T03:54:49.250Z,27.90
2019-01-15T03:57:17.384Z,13.77
2019-01-15T03:59:45.634Z,19.60
2019-01-15T04:02:15.147Z,16.90
2019-01-15T04:04:44.731Z,18.97
2019-01-15T04:07:16.467Z,18.20
2019-01-15T04:09:50.196Z,20.37
2019-01-15T04:12:24.602Z,18.73
2019-01-15T04:14:57.683Z,17.83
2019-01-15T04:17:26.188Z,20.90
2019-01-15T04:19:54.319Z,24.23
2019-01-15T04:22:24.007Z,20.97
2019-01-15T04:24:53.898Z,28.83
2019-01-15T04:27:24.916Z,25.07
2019-01-15T04:30:02.404Z,20.80
2019-01-15T04:32:30.565Z,26.23
2019-01-15T04:35:00.171Z,24.93
2019-01-15T04:37:28.340Z,25.30
2019-01-15T04:39:57.878Z,20.50
2019-01-15T04:42:26.018Z,24.47
2019-01-15T04:44:54.255Z,24.30
2019-01-15T04:47:22.434Z,25.90
2019-01-15T04:49:50.588Z,20.33
2019-01-15T04:52:18.887Z,25.43
2019-01-15T04:54:47.075Z,22.20
2019-01-15T04:57:15.383Z,26.23
2019-01-15T04:59:43.609Z,26.23
2019-01-15T05:02:11.782Z,26.60
2019-01-15T05:04:39.996Z,24.57
2019-01-15T05:07:08.222Z,30.23
2019-01-15T05:09:36.396Z,29.53
2019-01-15T05:12:06.189Z,26.67
2019-01-15T05:14:34.341Z,23.53
2019-01-15T05:17:02.632Z,21.20
2019-01-15T05:19:30.835Z,22.37
2019-01-15T05:21:58.990Z,25.27
2019-01-15T05:24:28.207Z,28.27
2019-01-15T05:26:56.360Z,25.97
2019-01-15T05:29:24.500Z,25.93
2019-01-15T05:31:52.703Z,22.00
2019-01-15T05:34:20.842Z,21.03
2019-01-15T05:36:49.055Z,22.80
2019-01-15T05:39:18.420Z,23.97
2019-01-15T05:41:46.599Z,23.13
2019-01-15T05:44:14.851Z,20.30
2019-01-15T05:46:43.032Z,20.00
2019-01-15T05:49:12.372Z,22.80
2019-01-15T05:51:40.611Z,24.10
2019-01-15T05:54:08.785Z,19.13
2019-01-15T05:56:36.936Z,27.43
2019-01-15T05:59:05.114Z,21.13
2019-01-15T06:01:33.285Z,17.40
2019-01-15T06:04:01.458Z,16.10
2019-01-15T06:06:29.603Z,17.33
2019-01-15T06:08:57.807Z,16.43
2019-01-15T06:11:25.951Z,16.80
2019-01-15T06:13:54.088Z,19.80
2019-01-15T06:16:22.265Z,21.80
2019-01-15T06:18:50.416Z,21.63
2019-01-15T06:21:18.576Z,22.97
2019-01-15T06:23:46.749Z,12.47
2019-01-15T06:26:14.891Z,16.67
2019-01-15T06:28:43.927Z,16.23
2019-01-15T06:31:12.998Z,14.07
2019-01-15T06:33:41.156Z,13.73
2019-01-15T06:36:09.286Z,9.83
2019-01-15T06:38:37.488Z,17.23
2019-01-15T06:41:05.715Z,12.50
2019-01-15T06:43:33.852Z,15.60
2019-01-15T06:46:02.020Z,13.03
2019-01-15T06:48:30.156Z,12.57
2019-01-15T06:50:58.314Z,14.30
2019-01-15T06:53:26.498Z,19.40
2019-01-15T06:55:54.633Z,10.07
2019-01-15T06:58:22.780Z,15.07
2019-01-15T07:00:50.951Z,11.30
2019-01-15T07:03:19.111Z,15.20
2019-01-15T07:05:47.261Z,16.63
2019-01-15T07:08:15.423Z,16.90
2019-01-15T07:10:43.720Z,26.47
2019-01-15T07:13:11.851Z,15.47
2019-01-15T07:15:40.031Z,16.70
2019-01-15T07:18:08.167Z,19.07
2019-01-15T07:20:36.304Z,18.83
2019-01-15T07:23:04.466Z,10.90
2019-01-15T07:25:32.607Z,16.70
2019-01-15T07:28:00.816Z,17.43
2019-01-15T07:30:39.373Z,17.10
2019-01-15T07:33:07.514Z,17.13
2019-01-15T07:35:35.686Z,15.17
2019-01-15T07:38:03.939Z,18.37
2019-01-15T07:40:32.089Z,18.60
2019-01-15T07:43:00.240Z,23.87
2019-01-15T07:45:28.407Z,17.57
2019-01-15T07:47:56.574Z,15.80
2019-01-15T07:50:24.715Z,14.87
2019-01-15T07:52:52.896Z,12.30
2019-01-15T07:55:21.714Z,20.37
2019-01-15T07:57:49.871Z,15.37
2019-01-15T08:00:27.227Z,21.37
2019-01-15T08:02:55.444Z,19.77
2019-01-15T08:05:24.640Z,26.67
2019-01-15T08:07:52.823Z,16.37
2019-01-15T08:10:21.085Z,16.97
2019-01-15T08:12:49.233Z,10.53
2019-01-15T08:15:18.508Z,19.57
2019-01-15T08:17:47.047Z,17.37
2019-01-15T08:20:15.191Z,12.03
2019-01-15T08:22:43.368Z,14.13
2019-01-15T08:25:12.568Z,9.80
2019-01-15T08:27:40.727Z,11.97
2019-01-15T08:30:22.687Z,15.17
2019-01-15T08:32:50.947Z,16.20
2019-01-15T08:35:19.443Z,26.10
2019-01-15T08:37:47.637Z,12.53
2019-01-15T08:40:17.055Z,19.70
2019-01-15T08:42:45.196Z,15.83
2019-01-15T08:45:14.904Z,17.30
2019-01-15T08:47:44.690Z,14.80
2019-01-15T08:50:14.455Z,22.40
2019-01-15T08:52:42.624Z,13.40
2019-01-15T08:55:10.807Z,21.47
2019-01-15T08:57:38.940Z,18.63
2019-01-15T09:00:08.757Z,18.80
2019-01-15T09:02:36.904Z,22.30
2019-01-15T09:05:05.819Z,14.23
2019-01-15T09:07:34.006Z,18.27
2019-01-15T09:10:02.149Z,19.43
2019-01-15T09:12:31.304Z,19.53
2019-01-15T09:14:59.492Z,21.53
2019-01-15T09:17:27.655Z,20.03
2019-01-15T09:19:55.827Z,21.30
2019-01-15T09:22:24.173Z,15.53
2019-01-15T09:24:52.316Z,13.03
2019-01-15T09:27:20.460Z,12.27
2019-01-15T09:29:48.636Z,19.00
2019-01-15T09:32:16.781Z,11.57
2019-01-15T09:34:44.922Z,27.07
2019-01-15T09:37:13.975Z,16.17
2019-01-15T09:39:42.109Z,13.17
2019-01-15T09:42:10.313Z,18.53
2019-01-15T09:44:38.675Z,17.07
2019-01-15T09:47:06.815Z,20.07
2019-01-15T09:49:34.948Z,16.57
2019-01-15T09:52:03.183Z,16.17
2019-01-15T09:54:31.355Z,15.87
2019-01-15T09:56:59.495Z,19.70
2019-01-15T09:59:27.656Z,11.10
2019-01-15T10:01:55.806Z,14.37
2019-01-15T10:04:23.947Z,10.83
2019-01-15T10:06:52.117Z,10.37
2019-01-15T10:09:20.259Z,16.80
2019-01-15T10:11:48.400Z,14.43
2019-01-15T10:14:16.589Z,16.57
2019-01-15T10:16:44.720Z,15.67
2019-01-15T10:19:12.852Z,15.33
2019-01-15T10:21:41.812Z,11.27
2019-01-15T10:24:09.953Z,19.80
2019-01-15T10:26:38.096Z,12.87
2019-01-15T10:29:06.266Z,17.47
2019-01-15T10:31:54.151Z,13.57
2019-01-15T10:34:23.381Z,18.30
2019-01-15T10:36:51.074Z,14.73
2019-01-15T10:39:19.227Z,23.77
2019-01-15T10:41:47.402Z,15.80
2019-01-15T10:44:15.535Z,13.90
2019-01-15T10:46:47.170Z,13.17
2019-01-15T10:49:20.152Z,12.50
2019-01-15T10:51:48.515Z,9.20
2019-01-15T10:54:16.659Z,21.10
2019-01-15T10:56:44.826Z,15.03
2019-01-15T10:59:12.973Z,16.47
2019-01-15T11:01:41.131Z,14.10
2019-01-15T11:04:09.299Z,16.00
2019-01-15T11:06:37.426Z,13.63
2019-01-15T11:09:07.206Z,15.90
2019-01-15T11:11:35.504Z,17.27
2019-01-15T11:14:03.670Z,15.20
2019-01-15T11:16:31.800Z,11.27
2019-01-15T11:18:59.966Z,12.63
2019-01-15T11:21:28.130Z,26.30
2019-01-15T11:23:56.261Z,16.90
2019-01-15T11:26:24.557Z,13.67
2019-01-15T11:28:52.687Z,18.27
2019-01-15T11:31:20.835Z,18.20
2019-01-15T11:33:49.023Z,15.40
2019-01-15T11:36:17.169Z,16.20
2019-01-15T11:38:45.320Z,14.37
2019-01-15T11:41:13.508Z,12.77
2019-01-15T11:43:41.644Z,13.50
2019-01-15T11:46:09.803Z,13.63
2019-01-15T11:48:37.966Z,15.87
2019-01-15T11:51:06.107Z,10.60
2019-01-15T11:53:34.239Z,19.03
2019-01-15T11:56:02.435Z,14.03
2019-01-15T11:58:30.560Z,15.93
2019-01-15T12:01:00.338Z,15.00
2019-01-15T12:03:30.162Z,19.30
2019-01-15T12:06:05.928Z,16.53
2019-01-15T12:08:38.533Z,17.07
2019-01-15T12:11:17.471Z,18.50
2019-01-15T12:14:02.436Z,15.43
2019-01-15T12:16:48.702Z,12.30
2019-01-15T12:19:30.515Z,15.10
2019-01-15T12:22:00.267Z,18.10
2019-01-15T12:24:32.587Z,16.80
2019-01-15T12:27:05.401Z,14.50
2019-01-15T12:29:44.349Z,25.50
2019-01-15T12:32:20.282Z,16.37
2019-01-15T12:35:02.124Z,11.60
2019-01-15T12:37:48.614Z,21.83
2019-01-15T12:40:34.734Z,16.87
2019-01-15T12:43:04.575Z,13.53
2019-01-15T12:45:34.356Z,12.87
2019-01-15T12:48:06.977Z,12.90
2019-01-15T12:50:39.808Z,15.50
2019-01-15T12:53:12.351Z,12.97
2019-01-15T12:55:59.863Z,19.43
2019-01-15T12:58:32.571Z,7.47
2019-01-15T13:01:18.859Z,13.83
2019-01-15T13:03:51.403Z,11.00
2019-01-15T13:06:37.709Z,13.27
2019-01-15T13:09:11.487Z,14.73
2019-01-15T13:11:44.211Z,16.80
2019-01-15T13:14:13.996Z,14.37
2019-01-15T13:16:43.769Z,10.03
2019-01-15T13:19:16.340Z,11.97
2019-01-15T13:21:46.115Z,13.03
2019-01-15T13:24:25.007Z,12.87
2019-01-15T13:27:11.438Z,18.80
2019-01-15T13:29:59.247Z,20.37
2019-01-15T13:32:45.103Z,15.67
2019-01-15T13:35:31.348Z,14.83
2019-01-15T13:38:07.437Z,21.77
2019-01-15T13:40:52.555Z,23.00
2019-01-15T13:43:22.356Z,15.67
2019-01-15T13:46:10.410Z,14.33
2019-01-15T13:48:45.934Z,12.27
2019-01-15T13:51:21.547Z,17.00
2019-01-15T13:53:51.341Z,13.13
2019-01-15T13:56:36.065Z,12.37
2019-01-15T13:59:22.136Z,12.67
2019-01-15T14:01:57.615Z,9.27
2019-01-15T14:04:33.776Z,7.10
2019-01-15T14:07:09.398Z,15.18
2019-01-15T14:09:42.203Z,17.17
2019-01-15T14:12:28.469Z,20.50
2019-01-15T14:15:01.073Z,19.27
2019-01-15T14:17:33.652Z,13.30
2019-01-15T14:20:06.488Z,20.77
2019-01-15T14:22:36.319Z,10.13
2019-01-15T14:25:13.692Z,12.80
2019-01-15T14:27:59.984Z,11.90
2019-01-15T14:30:47.898Z,18.20
2019-01-15T14:33:17.671Z,15.37
2019-01-15T14:36:02.568Z,14.20
2019-01-15T14:38:32.347Z,15.30
2019-01-15T14:41:18.680Z,10.57
2019-01-15T14:44:04.704Z,20.53
2019-01-15T14:46:46.685Z,16.50
2019-01-15T14:49:22.163Z,13.90
2019-01-15T14:52:08.556Z,15.70
2019-01-15T14:54:54.858Z,12.77
2019-01-15T14:57:27.391Z,19.43
2019-01-15T14:59:57.182Z,11.43
2019-01-15T15:02:29.959Z,11.23
2019-01-15T15:04:59.767Z,15.83
2019-01-15T15:07:32.456Z,22.63
2019-01-15T15:10:06.438Z,19.17
2019-01-15T15:12:39.431Z,22.83
2019-01-15T15:15:18.508Z,14.37
2019-01-15T15:17:57.029Z,14.13
2019-01-15T15:20:32.335Z,18.23
2019-01-15T15:23:11.091Z,14.70
2019-01-15T15:25:57.240Z,22.80
2019-01-15T15:28:39.088Z,13.20
2019-01-15T15:31:25.495Z,13.80
2019-01-15T15:34:11.939Z,17.80
2019-01-15T15:36:50.457Z,14.90
2019-01-15T15:39:20.240Z,19.03
2019-01-15T15:42:01.883Z,18.87
2019-01-15T15:44:31.675Z,13.20
2019-01-15T15:47:18.034Z,18.50
2019-01-15T15:50:05.808Z,16.17
2019-01-15T15:52:44.230Z,16.30
2019-01-15T15:55:26.118Z,15.73
2019-01-15T15:57:55.937Z,15.40
2019-01-15T16:00:31.495Z,21.53
2019-01-15T16:03:01.311Z,17.03
2019-01-15T16:05:40.187Z,19.97
2019-01-15T16:08:18.994Z,12.50
2019-01-15T16:11:05.348Z,23.97
2019-01-15T16:13:37.827Z,12.60
2019-01-15T16:16:22.887Z,17.77
2019-01-15T16:18:52.691Z,14.50
2019-01-15T16:21:22.499Z,14.53
2019-01-15T16:23:52.282Z,15.17
2019-01-15T16:26:27.920Z,18.80
2019-01-15T16:29:00.884Z,12.03
2019-01-15T16:31:36.883Z,12.53
2019-01-15T16:34:23.445Z,10.90
2019-01-15T16:36:56.047Z,19.30
2019-01-15T16:39:31.613Z,18.70
2019-01-15T16:42:07.358Z,9.33
2019-01-15T16:44:37.151Z,15.27
2019-01-15T16:47:10.039Z,14.00
2019-01-15T16:49:45.995Z,11.47
2019-01-15T16:52:25.017Z,13.10
2019-01-15T16:54:58.036Z,19.80
2019-01-15T16:57:30.700Z,14.67
2019-01-15T17:00:20.370Z,18.70
2019-01-15T17:02:51.760Z,10.00
2019-01-15T17:05:30.396Z,16.20
2019-01-15T17:08:00.224Z,13.13
2019-01-15T17:10:30.031Z,14.97
2019-01-15T17:13:02.554Z,19.93
2019-01-15T17:15:50.424Z,12.50
2019-01-15T17:18:20.202Z,14.63
2019-01-15T17:20:55.448Z,13.57
2019-01-15T17:23:28.243Z,11.03
2019-01-15T17:26:09.917Z,12.17
2019-01-15T17:28:39.688Z,14.53
2019-01-15T17:31:12.555Z,13.67
2019-01-15T17:33:48.431Z,15.50
2019-01-15T17:36:33.411Z,13.53
2019-01-15T17:39:03.347Z,12.73
2019-01-15T17:41:33.159Z,15.77
2019-01-15T17:44:02.934Z,17.07
2019-01-15T17:46:41.008Z,13.07
2019-01-15T17:49:09.827Z,11.37
2019-01-15T17:51:45.887Z,18.20
2019-01-15T17:54:32.169Z,12.47
2019-01-15T17:57:17.019Z,18.75
2019-01-15T17:59:52.864Z,15.23
2019-01-15T18:02:22.683Z,17.30
2019-01-15T18:04:52.463Z,11.03
2019-01-15T18:07:31.167Z,12.57
2019-01-15T18:10:06.932Z,14.27
2019-01-15T18:12:54.760Z,19.40
2019-01-15T21:17:24.203Z,11.87
2019-01-15T21:19:53.986Z,10.20
2019-01-15T21:22:23.777Z,12.33
2019-01-15T21:24:54.651Z,10.23
2019-01-15T21:27:24.960Z,13.63
2019-01-15T21:29:54.733Z,14.10
2019-01-15T21:32:41.111Z,13.90
2019-01-15T21:35:10.883Z,12.20
2019-01-15T21:37:43.782Z,12.60
2019-01-15T21:40:19.627Z,11.30
2019-01-15T21:42:49.415Z,11.20
2019-01-15T21:45:27.955Z,17.67
2019-01-15T21:48:00.752Z,13.43
2019-01-15T21:50:30.547Z,14.00
2019-01-15T21:53:03.404Z,10.33
2019-01-15T21:55:33.177Z,11.47
2019-01-15T21:58:18.296Z,11.77
2019-01-15T22:00:57.012Z,17.07
2019-01-15T22:03:29.620Z,13.80
2019-01-15T22:06:15.728Z,9.23
2019-01-15T22:09:02.156Z,10.83
2019-01-15T22:11:43.832Z,11.93
2019-01-15T22:14:19.613Z,13.43
2019-01-15T22:16:56.151Z,15.50
2019-01-15T22:19:42.421Z,17.47
2019-01-15T22:22:18.038Z,8.33
2019-01-15T22:24:51.023Z,11.27
2019-01-15T22:27:33.028Z,7.63
2019-01-15T22:30:05.529Z,8.63
2019-01-15T22:32:35.337Z,9.93
2019-01-15T22:35:20.217Z,9.77
2019-01-15T22:37:59.151Z,16.23
2019-01-15T22:40:40.589Z,10.20
2019-01-15T22:43:19.510Z,8.30
2019-01-15T22:46:07.423Z,11.57
2019-01-15T22:48:37.201Z,10.70
2019-01-15T22:51:23.074Z,12.63
2019-01-15T22:54:02.042Z,14.97
2019-01-15T22:56:40.713Z,17.97
2019-01-15T22:59:27.151Z,8.87
2019-01-15T23:01:59.504Z,10.47
2019-01-15T23:04:41.527Z,10.07
2019-01-15T23:07:14.096Z,13.07
2019-01-15T23:09:49.663Z,7.63
2019-01-15T23:12:36.036Z,9.63
2019-01-15T23:15:07.687Z,15.40
2019-01-15T23:17:40.332Z,14.83
2019-01-15T23:20:23.199Z,10.20
2019-01-15T23:23:01.920Z,11.17
2019-01-15T23:25:34.459Z,13.17
2019-01-15T23:28:07.464Z,17.00
2019-01-15T23:30:46.518Z,10.57
2019-01-15T23:33:16.310Z,8.70
2019-01-15T23:35:46.099Z,9.30
2019-01-15T23:38:15.874Z,7.30
2019-01-15T23:40:45.679Z,11.53
2019-01-15T23:43:27.716Z,13.60
2019-01-15T23:46:14.076Z,13.13
2019-01-15T23:48:46.864Z,12.37
2019-01-15T23:51:22.479Z,7.30
2019-01-15T23:54:00.890Z,8.70
2019-01-15T23:56:33.362Z,6.87
2019-01-15T23:59:19.535Z,9.23
